Ana Sayfa
METAR-TAF:

METAR-TAF

Havaalanları :

Boise, Idaho, Amerika Birleşik Devletleri

Enlem: 43-34-00N, Boylam: 116-14-26W, yükseklik: 871 m

Güncel hava durumu gözlemi

Rapor saat 21:53 UTC de 17 dakika önce yapıldı.
Rüzgar kuzey/kuzeybatıdan 15 kt ve 23 kt'a kadar ani rüzgarlar
Sıcaklık 29°C
Nem 19%
Basınç 1016 hPa
Görüş mesafesi: 16.1 km
Açık gökyüzü

METAR: KBOI 252153Z 33015G23KT 10SM CLR 29/03 A3001 RMK AO2 SLP135 T02940028

Saat: 16:10 (22:10 UTC)

Tahmin

Rapor saat 17:20 UTC de 4 saat ve 50 dakika önce yapıldı.
Ayın 25'si saat 18 UTC'den ayın 26'si saat 18 UTC'ye kadar geçerli Tahmin
Rüzgar kuzeybatıdan 14 kt ve 23 kt'a kadar ani rüzgarlar
Görüş mesafesi: 10 km
Açık gökyüzü
Ayın 26'si saat 0400 UTC'den
Rüzgar kuzeybatıdan 7 kt
Görüş mesafesi: 10 km
Açık gökyüzü

TAF: KBOI 251720Z 2518/2618 31014G23KT P6SM SKC FM260400 32007KT P6SM SKC

4.000'den fazla havaalanı için hava durumu gözlemleri ve tahminleri (METAR ve TAF raporları).

Kullanılabilir istasyonlar harita üzerinde sarı ve kırmızı noktalarla gösterilir.

İstasyonun adını görmek için fareyi noktanın üzerinde gezdirin.

Sonrasında hava gözlem ve tahminlerini görmek için tıklayın.

Haritayı değiştirmek için: yaklaştırmak için siyah artı işaretli yeşil düğmeye ve uzaklaştırmak için de eksi işaretli düğmeye hızla tıklayın; bitişik haritalar için yeşil okları kullanın.


METAR-TAF: